Time;durP1;ratioP1;P1;durP2;ratioP2;P2;SDS_P1;SDS_P2;PMS_P1;PMS_P2;Temp;Humidity;BMP_temperature;BMP_pressure;BME280_temperature;BME280_humidity;BME280_pressure;Samples;Min_cycle;Max_cycle;Signal;HPM_P1;HPM_P2
2022/10/17 00:02:03;;;;;;;17.23;16.23;;;11.80;99.90;;;;;;5039696;28;20179;-79
2022/10/17 00:04:29;;;;;;;17.67;16.83;;;11.80;99.90;;;;;;5039433;28;20281;-79
2022/10/17 00:06:54;;;;;;;18.57;17.47;;;11.80;99.90;;;;;;5039024;28;20215;-79
2022/10/17 00:09:20;;;;;;;19.90;18.67;;;11.80;99.90;;;;;;5036537;28;20210;-78
2022/10/17 00:11:46;;;;;;;20.70;19.40;;;11.80;99.90;;;;;;5039974;28;20178;-76
2022/10/17 00:14:12;;;;;;;20.27;19.07;;;11.80;99.90;;;;;;5044320;28;20183;-77
2022/10/17 00:16:37;;;;;;;18.23;16.97;;;11.80;99.90;;;;;;5043131;28;20193;-78
2022/10/17 00:19:05;;;;;;;18.17;16.70;;;11.80;99.90;;;;;;5035628;28;20218;-78
2022/10/17 00:21:31;;;;;;;19.13;18.13;;;11.70;99.90;;;;;;5036520;28;20187;-78
2022/10/17 00:23:59;;;;;;;17.20;15.83;;;11.80;99.90;;;;;;5037293;28;20187;-78
2022/10/17 00:26:26;;;;;;;9.43;8.90;;;11.70;99.90;;;;;;5037151;28;20214;-78
2022/10/17 00:28:52;;;;;;;13.17;12.07;;;11.60;99.90;;;;;;5039908;28;20195;-78
2022/10/17 00:31:20;;;;;;;18.80;11.47;;;11.60;99.90;;;;;;5037269;28;20202;-77
2022/10/17 00:33:46;;;;;;;10.60;10.10;;;11.50;99.90;;;;;;5042844;28;20175;-78
2022/10/17 00:36:15;;;;;;;12.77;11.77;;;11.50;99.90;;;;;;5040528;28;20274;-78
2022/10/17 00:38:42;;;;;;;19.07;17.60;;;11.50;99.90;;;;;;5044083;28;20229;-77
2022/10/17 00:41:11;;;;;;;23.83;22.17;;;11.50;99.90;;;;;;5048088;28;20191;-79
2022/10/17 00:43:53;;;;;;;14.70;13.67;;;11.50;99.90;;;;;;5046503;28;20182;-79
2022/10/17 00:46:20;;;;;;;16.17;14.97;;;11.60;99.90;;;;;;5043323;28;20207;-78
2022/10/17 00:48:48;;;;;;;15.37;14.30;;;11.60;99.90;;;;;;5042583;28;20194;-76
2022/10/17 00:51:15;;;;;;;20.43;18.40;;;11.60;99.90;;;;;;5048786;28;20179;-78
2022/10/17 00:53:41;;;;;;;19.93;18.63;;;11.50;99.90;;;;;;5042453;28;20179;-76
2022/10/17 00:56:07;;;;;;;25.47;23.80;;;11.50;99.90;;;;;;5050505;28;20196;-80
2022/10/17 00:58:33;;;;;;;24.23;22.90;;;11.50;99.90;;;;;;5044666;28;20190;-78
2022/10/17 01:01:01;;;;;;;22.13;21.03;;;11.50;99.90;;;;;;5041533;28;20189;-78
2022/10/17 01:03:27;;;;;;;25.50;24.20;;;11.40;99.90;;;;;;5039266;28;20191;-78
2022/10/17 01:05:53;;;;;;;26.33;24.47;;;11.40;99.90;;;;;;5039018;28;20238;-78
2022/10/17 01:08:19;;;;;;;14.27;13.60;;;11.40;99.90;;;;;;5037956;28;20190;-78
2022/10/17 01:10:53;;;;;;;11.40;9.97;;;11.40;99.90;;;;;;5038416;28;20183;-78
2022/10/17 01:13:35;;;;;;;12.37;11.40;;;11.30;99.90;;;;;;5038770;28;20651;-78
2022/10/17 01:16:10;;;;;;;9.20;8.80;;;11.20;99.90;;;;;;5035706;28;20612;-81
2022/10/17 01:19:11;;;;;;;8.63;7.93;;;11.20;99.90;;;;;;5036935;28;20257;-77
2022/10/17 01:22:01;;;;;;;6.97;6.57;;;11.20;99.90;;;;;;5027766;28;20642;-77
2022/10/17 01:24:39;;;;;;;5.90;5.70;;;11.20;99.90;;;;;;5042919;28;20187;-78
2022/10/17 01:27:10;;;;;;;6.27;5.80;;;11.20;99.90;;;;;;5036975;28;20236;-78
2022/10/17 01:29:39;;;;;;;11.10;10.47;;;11.20;99.90;;;;;;5035089;28;20202;-78
2022/10/17 01:32:17;;;;;;;17.33;16.23;;;11.20;99.90;;;;;;5045352;28;20175;-77
2022/10/17 01:35:03;;;;;;;20.07;18.67;;;11.10;99.90;;;;;;5053979;28;20286;-78
2022/10/17 01:38:04;;;;;;;27.13;24.93;;;11.00;99.90;;;;;;5033773;28;20252;-77
2022/10/17 01:40:49;;;;;;;11.50;10.70;;;11.00;99.90;;;;;;5032798;28;20268;-78
2022/10/17 01:43:27;;;;;;;8.30;6.70;;;11.00;99.90;;;;;;5034351;28;20187;-78
2022/10/17 01:46:08;;;;;;;9.00;5.93;;;11.00;99.90;;;;;;5033631;28;20214;-77
2022/10/17 01:48:37;;;;;;;7.00;6.47;;;11.00;99.90;;;;;;5032705;28;20182;-78
2022/10/17 01:51:11;;;;;;;8.30;7.70;;;11.00;99.90;;;;;;5034043;28;20185;-78
2022/10/17 01:53:57;;;;;;;12.50;11.80;;;11.00;99.90;;;;;;5034724;28;20240;-80
2022/10/17 01:56:26;;;;;;;23.90;22.43;;;11.00;99.90;;;;;;5046738;28;20194;-77
2022/10/17 01:59:00;;;;;;;14.63;5.63;;;11.00;99.90;;;;;;5045186;28;20205;-76
2022/10/17 02:01:28;;;;;;;6.33;5.90;;;11.00;99.90;;;;;;5039943;28;20273;-77
2022/10/17 02:03:56;;;;;;;11.60;5.50;;;11.00;99.90;;;;;;5042041;28;20218;-78
2022/10/17 02:06:22;;;;;;;10.40;9.47;;;11.00;99.90;;;;;;5040052;28;20293;-79
2022/10/17 02:08:50;;;;;;;19.07;17.30;;;10.90;99.90;;;;;;5041571;28;20225;-80
2022/10/17 02:11:19;;;;;;;20.83;18.93;;;10.90;99.90;;;;;;5043124;28;20197;-80
2022/10/17 02:14:26;;;;;;;17.37;16.33;;;10.90;99.90;;;;;;5035942;28;20182;-79
2022/10/17 02:17:04;;;;;;;8.80;8.40;;;10.80;99.90;;;;;;4963265;28;20212;-79
2022/10/17 02:20:00;;;;;;;6.40;5.83;;;10.90;99.90;;;;;;4995641;28;20234;-78
2022/10/17 02:22:57;;;;;;;29.13;27.50;;;10.80;99.90;;;;;;5013441;28;20193;-79
2022/10/17 02:25:47;;;;;;;25.53;24.10;;;10.90;99.90;;;;;;5013999;28;20262;-77
2022/10/17 02:28:28;;;;;;;31.10;21.67;;;10.90;99.90;;;;;;5035361;28;20203;-78
2022/10/17 02:31:09;;;;;;;43.97;41.10;;;11.00;99.90;;;;;;5033809;28;20182;-79
2022/10/17 02:33:47;;;;;;;17.67;15.90;;;11.10;99.90;;;;;;5034973;28;20178;-78
2022/10/17 02:36:18;;;;;;;11.50;6.63;;;11.00;99.90;;;;;;5044538;28;20187;-77
2022/10/17 02:38:45;;;;;;;41.80;24.67;;;11.00;99.90;;;;;;5044782;28;20236;-77
2022/10/17 02:41:15;;;;;;;39.40;25.00;;;11.00;99.90;;;;;;5035494;28;20270;-78
2022/10/17 02:43:44;;;;;;;32.47;29.77;;;10.90;99.90;;;;;;5034366;28;20171;-78
2022/10/17 02:46:19;;;;;;;25.30;23.07;;;10.80;99.90;;;;;;5036574;28;20206;-77
2022/10/17 02:49:06;;;;;;;24.87;23.10;;;10.80;99.90;;;;;;5016904;28;20573;-77
2022/10/17 02:51:58;;;;;;;16.90;15.27;;;10.80;99.90;;;;;;5026486;28;20183;-78
2022/10/17 02:54:33;;;;;;;12.43;9.27;;;10.80;99.90;;;;;;5035790;28;20187;-79
2022/10/17 02:57:06;;;;;;;10.30;8.77;;;10.70;99.90;;;;;;5038220;28;20187;-79
2022/10/17 02:59:34;;;;;;;18.90;10.83;;;10.80;99.90;;;;;;5036545;28;20210;-79
2022/10/17 03:02:05;;;;;;;19.53;18.13;;;10.70;99.90;;;;;;5036515;28;20183;-78
2022/10/17 03:04:31;;;;;;;54.23;50.80;;;10.70;99.90;;;;;;5046714;28;20183;-78
2022/10/17 03:06:57;;;;;;;62.10;58.70;;;10.70;99.90;;;;;;5042785;28;20234;-78
2022/10/17 03:09:22;;;;;;;59.20;56.03;;;10.80;99.90;;;;;;5039290;28;20292;-78
2022/10/17 03:11:48;;;;;;;54.27;50.90;;;10.70;99.90;;;;;;5038651;28;20178;-78
2022/10/17 03:14:14;;;;;;;42.80;39.90;;;10.80;99.90;;;;;;5039440;28;20238;-78
2022/10/17 03:16:40;;;;;;;15.17;14.30;;;10.80;99.90;;;;;;5040708;28;20186;-78
2022/10/17 03:19:06;;;;;;;33.93;11.20;;;10.80;99.90;;;;;;5040360;28;20214;-78
2022/10/17 03:21:35;;;;;;;7.23;6.53;;;10.70;99.90;;;;;;5041526;28;20252;-78
2022/10/17 03:24:01;;;;;;;17.33;7.27;;;10.70;99.90;;;;;;5038308;28;20198;-78
2022/10/17 03:26:28;;;;;;;27.23;8.77;;;10.70;99.90;;;;;;5038122;28;20633;-78
2022/10/17 03:28:54;;;;;;;57.03;11.63;;;10.70;99.90;;;;;;5036802;28;20199;-78
2022/10/17 03:31:20;;;;;;;56.70;11.93;;;10.70;99.90;;;;;;5039960;28;20175;-76
2022/10/17 03:33:46;;;;;;;18.47;8.63;;;10.70;99.90;;;;;;5042800;28;20178;-78
2022/10/17 03:36:15;;;;;;;54.83;14.73;;;10.70;99.90;;;;;;5038462;28;20207;-78
2022/10/17 03:38:41;;;;;;;54.93;20.57;;;10.70;99.90;;;;;;5044592;28;20206;-79
2022/10/17 03:41:07;;;;;;;59.37;53.93;;;10.70;99.90;;;;;;5041123;28;20209;-79
2022/10/17 03:43:33;;;;;;;80.23;73.37;;;10.70;99.90;;;;;;5046700;28;20189;-78
2022/10/17 03:46:00;;;;;;;66.03;61.20;;;10.70;99.90;;;;;;5056332;28;20199;-78
2022/10/17 03:48:27;;;;;;;68.10;63.27;;;10.70;99.90;;;;;;5041037;28;20398;-78
2022/10/17 03:51:01;;;;;;;88.77;83.90;;;10.60;99.90;;;;;;5044553;28;20614;-77
2022/10/17 03:53:27;;;;;;;86.47;81.00;;;10.60;99.90;;;;;;5042147;28;20187;-78
2022/10/17 03:55:53;;;;;;;67.10;61.63;;;10.60;99.90;;;;;;5040421;28;20187;-78
2022/10/17 03:58:19;;;;;;;78.93;74.80;;;10.50;99.90;;;;;;5042686;28;20183;-79
2022/10/17 04:00:45;;;;;;;74.33;69.53;;;10.40;99.90;;;;;;5036608;28;20202;-78
2022/10/17 04:03:10;;;;;;;78.13;73.60;;;10.40;99.90;;;;;;5037535;28;20617;-78
2022/10/17 04:05:36;;;;;;;69.17;64.83;;;10.30;99.90;;;;;;5042576;28;20853;-78
2022/10/17 04:08:04;;;;;;;28.83;26.63;;;10.30;99.90;;;;;;5043378;28;20552;-78
2022/10/17 04:10:31;;;;;;;17.60;16.03;;;10.30;99.90;;;;;;5038892;28;20860;-78
2022/10/17 04:12:56;;;;;;;18.80;17.63;;;10.30;99.90;;;;;;5019143;28;20914;-78
2022/10/17 04:15:22;;;;;;;24.50;21.57;;;10.30;99.90;;;;;;5035980;28;20180;-77
2022/10/17 04:17:48;;;;;;;17.87;16.67;;;10.30;99.90;;;;;;5033530;28;20672;-78
2022/10/17 04:20:14;;;;;;;27.73;24.87;;;10.30;99.90;;;;;;5016534;28;20227;-78
2022/10/17 04:22:40;;;;;;;22.03;20.63;;;10.30;99.90;;;;;;5018539;28;20559;-79
2022/10/17 04:25:05;;;;;;;21.73;18.40;;;10.20;99.90;;;;;;5019069;28;20195;-78
2022/10/17 04:27:31;;;;;;;21.60;19.93;;;10.20;99.90;;;;;;5018051;28;20184;-78
2022/10/17 04:29:57;;;;;;;17.80;16.33;;;10.20;99.90;;;;;;5017065;28;20661;-78
2022/10/17 04:32:24;;;;;;;36.23;34.30;;;10.20;99.90;;;;;;5032420;28;20238;-78
2022/10/17 04:34:50;;;;;;;15.17;13.93;;;10.10;99.90;;;;;;5032922;28;20655;-78
2022/10/17 04:37:16;;;;;;;16.47;15.23;;;10.10;99.90;;;;;;5033271;28;20180;-78
2022/10/17 04:39:41;;;;;;;15.87;14.97;;;10.10;99.90;;;;;;5032999;28;20752;-78
2022/10/17 04:42:07;;;;;;;21.60;20.27;;;10.10;99.90;;;;;;5015540;28;20190;-78
2022/10/17 04:44:34;;;;;;;24.87;23.20;;;10.10;99.90;;;;;;5014952;28;20187;-78
2022/10/17 04:47:00;;;;;;;37.10;34.40;;;10.00;99.90;;;;;;5015327;28;20212;-78
2022/10/17 04:49:26;;;;;;;37.93;35.33;;;10.00;99.90;;;;;;5036525;28;20197;-78
2022/10/17 04:51:51;;;;;;;21.60;19.70;;;10.10;99.90;;;;;;5036682;28;20221;-78
2022/10/17 04:54:18;;;;;;;33.40;30.93;;;10.10;99.90;;;;;;5034957;28;20189;-78
2022/10/17 04:56:46;;;;;;;40.97;38.03;;;10.20;99.90;;;;;;5034834;28;20269;-78
2022/10/17 04:59:11;;;;;;;40.10;37.20;;;10.20;99.90;;;;;;5035412;28;20238;-78
2022/10/17 05:01:37;;;;;;;31.47;29.37;;;10.20;99.90;;;;;;5034020;28;20190;-78
2022/10/17 05:04:03;;;;;;;48.47;45.53;;;10.20;99.90;;;;;;5018138;28;20218;-78
2022/10/17 05:06:30;;;;;;;37.27;34.47;;;10.20;99.90;;;;;;5036930;28;20211;-79
2022/10/17 05:08:57;;;;;;;32.23;30.07;;;10.20;99.90;;;;;;5036407;28;20266;-79
2022/10/17 05:11:25;;;;;;;28.40;26.17;;;10.20;99.90;;;;;;5035686;28;20292;-78
2022/10/17 05:13:58;;;;;;;19.17;17.47;;;10.10;99.90;;;;;;5035546;28;20175;-78
2022/10/17 05:16:26;;;;;;;21.30;19.37;;;10.10;99.90;;;;;;5035800;28;20189;-78
2022/10/17 05:18:53;;;;;;;23.97;22.50;;;10.10;99.90;;;;;;5035756;28;20306;-78
2022/10/17 05:21:20;;;;;;;35.67;32.50;;;10.10;99.90;;;;;;5034740;28;20183;-78
2022/10/17 05:23:46;;;;;;;16.93;15.23;;;10.10;99.90;;;;;;5034842;28;20622;-72
2022/10/17 05:26:12;;;;;;;19.70;18.30;;;10.10;99.90;;;;;;5032182;28;20206;-72
2022/10/17 05:28:38;;;;;;;25.37;23.73;;;10.10;99.90;;;;;;5031509;28;20285;-72
2022/10/17 05:31:05;;;;;;;32.77;30.37;;;10.10;99.90;;;;;;5030480;28;20229;-72
2022/10/17 05:33:32;;;;;;;54.90;51.90;;;10.00;99.90;;;;;;5030440;28;20179;-73
2022/10/17 05:35:58;;;;;;;42.90;39.53;;;10.00;99.90;;;;;;5031351;28;20293;-72
2022/10/17 05:38:24;;;;;;;32.77;30.17;;;10.10;99.90;;;;;;5029900;28;20183;-72
2022/10/17 05:40:50;;;;;;;35.83;22.27;;;10.10;99.90;;;;;;5015158;28;20192;-73
2022/10/17 05:43:16;;;;;;;25.60;23.47;;;10.10;99.90;;;;;;5009472;28;20183;-72
2022/10/17 05:45:42;;;;;;;29.33;27.00;;;10.10;99.90;;;;;;5010609;28;20212;-75
2022/10/17 05:48:08;;;;;;;45.77;43.03;;;10.10;99.90;;;;;;5011512;28;20718;-74
2022/10/17 05:50:34;;;;;;;63.10;59.20;;;10.10;99.90;;;;;;5011862;28;20283;-74
2022/10/17 05:53:00;;;;;;;51.93;48.93;;;10.20;99.90;;;;;;5011938;28;20180;-74
2022/10/17 05:55:26;;;;;;;57.80;54.10;;;10.20;99.90;;;;;;5010966;28;20197;-74
2022/10/17 05:57:52;;;;;;;48.77;45.63;;;10.20;99.90;;;;;;5012857;28;20187;-75
2022/10/17 06:00:20;;;;;;;26.97;24.97;;;10.20;99.90;;;;;;5016326;28;20643;-74
2022/10/17 06:02:46;;;;;;;60.33;56.53;;;10.20;99.90;;;;;;5012785;28;20194;-75
2022/10/17 06:05:12;;;;;;;70.70;66.27;;;10.30;99.90;;;;;;5012098;28;20180;-75
2022/10/17 06:07:39;;;;;;;64.77;60.90;;;10.30;99.90;;;;;;5010381;28;20184;-75
2022/10/17 06:10:05;;;;;;;70.90;66.87;;;10.40;99.90;;;;;;5019252;28;20576;-75
2022/10/17 06:12:31;;;;;;;29.57;27.50;;;10.40;99.90;;;;;;5029165;28;20225;-75
2022/10/17 06:14:57;;;;;;;20.50;18.70;;;10.50;99.90;;;;;;5030229;28;20190;-75
2022/10/17 06:17:23;;;;;;;15.23;14.13;;;10.50;99.90;;;;;;5031021;28;20182;-73
2022/10/17 06:19:49;;;;;;;15.53;13.00;;;10.60;99.90;;;;;;5031113;28;20281;-76
2022/10/17 06:22:15;;;;;;;14.63;12.70;;;10.60;99.90;;;;;;5031167;28;20178;-75
2022/10/17 06:24:41;;;;;;;12.93;12.00;;;10.70;99.90;;;;;;5031556;28;20191;-75
2022/10/17 06:27:07;;;;;;;18.20;7.67;;;10.80;99.90;;;;;;5030314;28;20211;-75
2022/10/17 06:29:33;;;;;;;28.33;26.70;;;10.90;99.90;;;;;;5031895;28;20199;-75
2022/10/17 06:31:59;;;;;;;50.67;47.43;;;10.90;99.90;;;;;;5031555;28;20238;-75
2022/10/17 06:34:25;;;;;;;17.67;16.40;;;10.90;99.90;;;;;;5031919;28;20179;-75
2022/10/17 06:36:52;;;;;;;34.33;32.20;;;10.90;99.90;;;;;;5029911;28;20183;-75
2022/10/17 06:39:18;;;;;;;51.57;48.53;;;11.00;99.90;;;;;;5033870;28;20203;-75
2022/10/17 06:41:44;;;;;;;85.30;80.60;;;11.10;99.90;;;;;;5034045;28;20192;-75
2022/10/17 06:44:10;;;;;;;80.33;75.73;;;11.20;99.90;;;;;;5034888;28;20272;-76
2022/10/17 06:46:37;;;;;;;86.77;81.57;;;11.20;99.90;;;;;;5035188;28;20348;-76
2022/10/17 06:49:04;;;;;;;100.40;95.33;;;11.30;99.90;;;;;;5033169;28;20226;-75
2022/10/17 06:51:30;;;;;;;125.57;119.27;;;11.50;99.90;;;;;;5034480;28;20188;-76
2022/10/17 06:53:57;;;;;;;55.33;52.23;;;11.70;99.90;;;;;;5033323;28;20182;-75
2022/10/17 06:56:23;;;;;;;69.10;64.77;;;11.80;99.90;;;;;;5034540;28;20262;-75
2022/10/17 06:58:50;;;;;;;78.97;74.23;;;12.10;99.90;;;;;;5023205;28;20255;-75
2022/10/17 07:01:16;;;;;;;163.57;154.43;;;12.40;99.90;;;;;;5014124;28;20186;-75
2022/10/17 07:03:45;;;;;;;11.43;10.33;;;12.80;99.90;;;;;;5017995;28;20179;-75
2022/10/17 07:06:11;;;;;;;25.80;24.17;;;13.10;99.90;;;;;;5034077;28;20233;-75
2022/10/17 07:08:37;;;;;;;23.47;22.13;;;13.50;99.90;;;;;;5032641;28;20207;-76
2022/10/17 07:11:14;;;;;;;19.80;18.30;;;13.80;99.90;;;;;;5034751;28;20544;-76
2022/10/17 07:13:40;;;;;;;9.37;8.77;;;14.20;99.90;;;;;;5032649;28;20175;-75
2022/10/17 07:16:06;;;;;;;11.27;10.53;;;14.70;99.90;;;;;;5028469;28;20234;-76
2022/10/17 07:18:32;;;;;;;14.43;12.73;;;15.30;99.90;;;;;;5012215;28;20263;-76
2022/10/17 07:20:59;;;;;;;7.30;6.67;;;15.70;99.90;;;;;;5014008;28;20192;-75
2022/10/17 07:23:25;;;;;;;10.53;8.20;;;16.10;99.90;;;;;;5012853;28;20190;-75
2022/10/17 07:25:51;;;;;;;12.37;11.47;;;16.20;99.90;;;;;;5014587;28;20207;-75
2022/10/17 07:28:17;;;;;;;11.50;8.37;;;16.40;99.90;;;;;;5016395;28;20187;-76
2022/10/17 07:30:44;;;;;;;8.53;7.93;;;16.40;99.90;;;;;;5032655;28;20183;-75
2022/10/17 07:33:09;;;;;;;9.00;8.43;;;16.60;99.90;;;;;;5024419;28;20184;-76
2022/10/17 07:35:39;;;;;;;7.67;6.60;;;16.90;99.90;;;;;;5014018;28;20186;-76
2022/10/17 07:38:05;;;;;;;7.47;6.83;;;17.20;99.90;;;;;;5013745;28;20179;-75
2022/10/17 07:40:31;;;;;;;12.80;7.83;;;17.30;99.90;;;;;;5014536;28;20199;-76
2022/10/17 07:42:57;;;;;;;8.00;7.27;;;17.60;99.90;;;;;;5015334;28;20273;-76
2022/10/17 07:45:23;;;;;;;8.03;7.37;;;17.90;99.90;;;;;;5022531;28;20203;-77
2022/10/17 07:47:49;;;;;;;7.03;6.47;;;17.90;99.90;;;;;;5032103;28;20882;-76
2022/10/17 07:50:14;;;;;;;8.07;5.60;;;18.20;99.90;;;;;;5032020;28;20195;-76
2022/10/17 07:52:42;;;;;;;12.93;11.87;;;18.50;99.90;;;;;;5019947;28;20655;-75
2022/10/17 07:55:08;;;;;;;8.57;8.00;;;18.80;99.90;;;;;;5011787;28;20271;-75
2022/10/17 07:57:34;;;;;;;14.73;13.67;;;18.70;99.90;;;;;;5013243;28;20640;-75
2022/10/17 08:00:00;;;;;;;16.27;15.23;;;18.40;99.90;;;;;;5013441;28;20211;-76
2022/10/17 08:02:26;;;;;;;12.90;7.53;;;18.70;99.90;;;;;;5012401;28;20258;-76
2022/10/17 08:04:53;;;;;;;6.50;6.10;;;19.00;99.90;;;;;;5012625;28;20180;-76
2022/10/17 08:07:20;;;;;;;9.57;6.10;;;19.00;99.90;;;;;;5012037;28;20696;-76
2022/10/17 08:09:46;;;;;;;7.37;6.87;;;19.00;99.90;;;;;;5013560;28;20253;-76
2022/10/17 08:12:13;;;;;;;10.23;5.70;;;19.20;99.90;;;;;;5016847;28;20184;-76
2022/10/17 08:14:42;;;;;;;8.67;5.57;;;19.50;99.90;;;;;;5013678;28;20278;-76
2022/10/17 08:17:08;;;;;;;17.77;16.70;;;19.70;99.90;;;;;;5012940;28;20222;-75
2022/10/17 08:19:38;;;;;;;22.40;21.20;;;19.80;99.90;;;;;;5012068;28;20211;-76
2022/10/17 08:22:04;;;;;;;21.77;20.23;;;19.90;99.90;;;;;;5012233;28;20194;-76
2022/10/17 08:24:29;;;;;;;34.47;31.87;;;20.10;99.90;;;;;;5013460;28;20188;-76
2022/10/17 08:26:57;;;;;;;56.57;53.37;;;20.10;99.90;;;;;;5013027;28;20215;-76
2022/10/17 08:29:23;;;;;;;105.20;99.60;;;20.20;99.90;;;;;;5013119;28;20212;-76
2022/10/17 08:31:49;;;;;;;95.80;90.50;;;20.40;99.90;;;;;;5013060;28;20223;-76
2022/10/17 08:34:15;;;;;;;94.67;90.00;;;20.50;99.90;;;;;;5013154;28;20186;-76
2022/10/17 08:36:41;;;;;;;92.93;87.20;;;20.60;99.90;;;;;;5013223;28;20645;-76
2022/10/17 08:39:07;;;;;;;74.03;70.38;;;20.70;99.90;;;;;;5013093;28;20587;-77
2022/10/17 08:42:09;;;;;;;67.68;64.38;;;20.90;99.90;;;;;;5013153;28;20186;-76
2022/10/17 08:44:55;;;;;;;43.08;40.83;;;21.20;99.90;;;;;;5011699;28;20179;-76
2022/10/17 08:47:35;;;;;;;43.87;41.43;;;21.50;99.90;;;;;;5011313;28;20637;-76
2022/10/17 08:50:04;;;;;;;19.40;18.40;;;21.70;99.90;;;;;;5012714;28;20222;-77
2022/10/17 08:52:42;;;;;;;26.13;24.37;;;21.90;99.90;;;;;;5012681;28;20172;-76
2022/10/17 08:55:15;;;;;;;22.90;21.75;;;21.80;99.90;;;;;;5012637;28;20641;-76
2022/10/17 08:57:42;;;;;;;17.83;16.38;;;22.00;99.90;;;;;;5012293;28;20636;-76
2022/10/17 09:00:17;;;;;;;19.63;18.15;;;22.20;99.90;;;;;;5012309;28;20696;-76
2022/10/17 09:03:16;;;;;;;21.35;20.23;;;22.50;99.90;;;;;;5012137;28;20183;-76
2022/10/17 09:05:50;;;;;;;17.45;16.30;;;22.70;99.90;;;;;;5011458;28;20254;-76
2022/10/17 09:08:44;;;;;;;8.10;7.15;;;23.50;99.90;;;;;;5012079;28;20182;-76
2022/10/17 09:11:12;;;;;;;13.15;12.20;;;24.10;99.90;;;;;;5012261;28;20191;-76
2022/10/17 09:14:16;;;;;;;14.95;14.07;;;24.50;99.90;;;;;;5012322;28;20176;-76
2022/10/17 09:17:10;;;;;;;15.18;13.93;;;25.00;99.90;;;;;;5007271;28;20257;-76
2022/10/17 09:19:47;;;;;;;16.05;14.60;;;24.70;99.90;;;;;;5012006;28;20754;-77
2022/10/17 09:22:22;;;;;;;9.57;8.98;;;25.00;99.90;;;;;;5012199;28;20183;-75
2022/10/17 09:24:54;;;;;;;7.28;6.60;;;25.70;99.90;;;;;;5012116;28;20561;-76
2022/10/17 09:27:48;;;;;;;8.10;4.72;;;25.70;99.90;;;;;;5011779;28;20293;-76
2022/10/17 09:30:34;;;;;;;8.13;7.63;;;25.40;99.90;;;;;;5012033;28;20763;-76
2022/10/17 09:33:00;;;;;;;9.32;7.80;;;25.30;99.90;;;;;;5012284;28;20267;-76
2022/10/17 09:35:27;;;;;;;7.00;6.38;;;25.60;99.90;;;;;;5012952;28;20180;-77
2022/10/17 09:37:54;;;;;;;8.02;4.32;;;25.80;99.90;;;;;;5012763;28;20215;-77
2022/10/17 09:40:33;;;;;;;12.85;3.72;;;26.40;99.90;;;;;;5012015;28;20286;-77
2022/10/17 09:43:01;;;;;;;8.07;3.92;;;26.60;99.90;;;;;;5012093;28;20191;-76
2022/10/17 09:45:32;;;;;;;9.30;3.97;;;26.60;99.90;;;;;;5010707;28;20233;-76
2022/10/17 09:48:15;;;;;;;5.53;4.10;;;26.50;99.90;;;;;;5010301;28;20175;-76
2022/10/17 09:50:43;;;;;;;7.30;5.05;;;26.50;99.90;;;;;;5011702;28;20663;-75
2022/10/17 09:53:19;;;;;;;6.82;4.68;;;26.80;99.90;;;;;;5011621;28;20175;-76
2022/10/17 09:55:49;;;;;;;7.07;3.92;;;27.10;99.90;;;;;;5011879;28;20190;-76
2022/10/17 09:58:19;;;;;;;10.88;5.30;;;28.10;99.90;;;;;;5010421;28;20611;-76
2022/10/17 10:00:47;;;;;;;4.28;3.95;;;28.10;99.90;;;;;;5011875;28;20175;-77
2022/10/17 10:03:22;;;;;;;9.82;3.97;;;28.20;99.90;;;;;;5010756;28;20183;-76
2022/10/17 10:06:02;;;;;;;8.50;3.90;;;28.10;99.90;;;;;;5011505;28;20681;-76
2022/10/17 10:08:31;;;;;;;4.32;3.63;;;27.80;99.90;;;;;;5010629;28;20171;-76
2022/10/17 10:11:06;;;;;;;4.55;4.25;;;28.40;99.90;;;;;;5011155;28;20180;-76
2022/10/17 10:13:34;;;;;;;8.60;4.95;;;28.50;99.50;;;;;;5010285;28;20183;-76
2022/10/17 10:16:14;;;;;;;7.45;4.30;;;28.20;99.30;;;;;;5011227;28;20200;-76
2022/10/17 10:18:40;;;;;;;4.38;3.95;;;28.00;99.90;;;;;;5010842;28;20269;-76
2022/10/17 10:21:08;;;;;;;7.13;4.40;;;28.10;99.60;;;;;;5011805;28;20192;-75
2022/10/17 10:23:38;;;;;;;8.70;5.50;;;28.30;99.70;;;;;;5013852;28;20202;-76
2022/10/17 10:26:26;;;;;;;3.63;3.17;;;27.80;99.40;;;;;;5010716;28;20215;-75
2022/10/17 10:28:54;;;;;;;5.53;3.70;;;27.50;99.90;;;;;;5011195;28;20226;-75
2022/10/17 10:31:36;;;;;;;9.57;3.70;;;27.20;99.90;;;;;;5012035;28;20703;-75
2022/10/17 10:34:19;;;;;;;5.93;4.28;;;27.30;99.90;;;;;;5010865;28;20652;-76
2022/10/17 10:36:55;;;;;;;5.88;3.70;;;27.60;99.90;;;;;;5009596;28;20187;-76
2022/10/17 10:39:27;;;;;;;8.23;3.97;;;28.60;98.50;;;;;;5011161;28;20203;-76
2022/10/17 10:41:53;;;;;;;6.28;5.60;;;29.30;97.70;;;;;;5011392;28;20753;-77
2022/10/17 10:44:23;;;;;;;8.55;4.97;;;29.70;96.60;;;;;;5011370;28;20648;-76
2022/10/17 10:47:16;;;;;;;13.45;5.00;;;29.20;96.90;;;;;;5010855;28;20306;-76
2022/10/17 10:49:42;;;;;;;8.27;6.43;;;29.40;97.20;;;;;;5010574;28;20250;-75
2022/10/17 10:52:17;;;;;;;6.68;5.28;;;29.30;97.00;;;;;;5013426;28;20534;-76
2022/10/17 10:55:08;;;;;;;9.05;8.07;;;29.20;97.80;;;;;;5011343;28;20179;-76
2022/10/17 10:57:36;;;;;;;9.93;8.98;;;29.40;96.50;;;;;;5009294;28;20195;-76
2022/10/17 11:00:17;;;;;;;47.17;44.92;;;29.50;96.90;;;;;;5010749;28;20684;-76
2022/10/17 11:03:14;;;;;;;50.28;47.42;;;29.80;94.20;;;;;;5009711;28;20272;-76
2022/10/17 11:05:56;;;;;;;59.65;56.50;;;29.80;94.00;;;;;;5010226;28;20310;-76
2022/10/17 11:08:44;;;;;;;45.53;43.30;;;30.10;93.50;;;;;;5010591;28;20186;-75
2022/10/17 11:11:28;;;;;;;36.72;34.83;;;30.70;91.80;;;;;;5010818;28;20184;-75
2022/10/17 11:14:21;;;;;;;50.40;47.78;;;31.20;90.90;;;;;;5008757;28;20598;-76
2022/10/17 11:17:18;;;;;;;55.28;52.17;;;30.70;92.40;;;;;;5010349;28;20191;-77
2022/10/17 11:19:59;;;;;;;46.70;44.08;;;30.90;92.10;;;;;;5009585;28;20216;-75
2022/10/17 11:22:36;;;;;;;33.75;31.73;;;31.00;91.80;;;;;;5010905;28;20191;-75
2022/10/17 11:25:35;;;;;;;45.25;43.00;;;30.70;90.10;;;;;;5013311;28;20627;-76
2022/10/17 11:28:07;;;;;;;35.25;33.55;;;30.90;90.00;;;;;;5013690;28;20191;-76
2022/10/17 11:30:43;;;;;;;31.20;29.25;;;30.90;88.80;;;;;;5014833;28;20196;-76
2022/10/17 11:33:11;;;;;;;19.13;18.02;;;31.30;88.60;;;;;;5014167;28;20190;-76
2022/10/17 11:35:41;;;;;;;16.25;15.00;;;31.60;83.70;;;;;;5014807;28;20547;-75
2022/10/17 11:38:15;;;;;;;27.10;25.48;;;31.80;84.30;;;;;;5014162;28;20192;-73
2022/10/17 11:40:47;;;;;;;18.63;17.55;;;32.40;85.90;;;;;;5015625;28;20293;-73
2022/10/17 11:43:26;;;;;;;13.55;12.85;;;32.50;79.70;;;;;;5028251;28;20225;-74
2022/10/17 11:45:59;;;;;;;13.68;12.82;;;32.20;81.50;;;;;;5030413;28;20203;-73
2022/10/17 11:48:39;;;;;;;9.93;8.93;;;31.90;82.70;;;;;;5013127;28;20533;-73
2022/10/17 11:51:11;;;;;;;5.78;4.70;;;32.40;78.40;;;;;;5012434;28;20187;-73
2022/10/17 11:53:50;;;;;;;5.70;4.63;;;33.70;74.80;;;;;;5012363;28;20222;-73
2022/10/17 11:56:27;;;;;;;7.28;4.68;;;33.70;77.00;;;;;;5011904;28;20209;-74
2022/10/17 11:58:53;;;;;;;6.80;4.93;;;33.70;76.10;;;;;;5022002;28;20276;-74
2022/10/17 12:01:52;;;;;;;4.15;3.80;;;33.80;75.80;;;;;;5033584;28;20187;-74
2022/10/17 12:04:39;;;;;;;5.18;4.97;;;34.70;69.60;;;;;;5028359;28;20199;-74
2022/10/17 12:07:20;;;;;;;6.35;3.97;;;34.80;66.20;;;;;;5033109;28;20655;-74
2022/10/17 12:09:55;;;;;;;4.18;3.53;;;34.70;70.00;;;;;;5033176;28;20738;-73
2022/10/17 12:12:29;;;;;;;4.82;4.53;;;35.00;67.60;;;;;;5033452;28;20192;-74
2022/10/17 12:15:18;;;;;;;5.57;3.40;;;35.20;66.50;;;;;;5033266;28;20267;-74
2022/10/17 12:18:01;;;;;;;3.88;3.33;;;34.80;66.40;;;;;;5030513;28;20179;-74
2022/10/17 12:20:32;;;;;;;4.85;3.53;;;34.70;65.40;;;;;;5032769;28;20225;-74
2022/10/17 12:23:01;;;;;;;5.70;4.22;;;34.60;66.80;;;;;;5033320;28;20647;-74
2022/10/17 12:25:32;;;;;;;6.88;3.55;;;34.60;62.10;;;;;;5033127;28;20269;-74
2022/10/17 12:28:11;;;;;;;6.95;4.28;;;34.50;64.60;;;;;;5032768;28;20268;-75
2022/10/17 12:30:50;;;;;;;8.15;4.70;;;34.50;65.10;;;;;;5033206;28;20202;-75
2022/10/17 12:33:54;;;;;;;4.57;4.18;;;34.50;64.00;;;;;;5032946;28;20524;-74
2022/10/17 12:36:26;;;;;;;4.80;4.55;;;34.30;63.30;;;;;;5014130;28;20282;-74
2022/10/17 12:39:01;;;;;;;4.13;3.72;;;34.70;59.50;;;;;;5012705;28;20234;-74
2022/10/17 12:41:40;;;;;;;9.63;9.13;;;34.40;62.40;;;;;;5012178;28;20184;-74
2022/10/17 12:44:12;;;;;;;5.55;4.35;;;35.20;59.70;;;;;;5013208;28;20196;-74
2022/10/17 12:46:40;;;;;;;21.98;20.60;;;34.90;61.40;;;;;;5026610;28;20202;-74
2022/10/17 12:49:46;;;;;;;17.00;15.93;;;34.80;59.80;;;;;;5031300;28;20625;-74
2022/10/17 12:52:30;;;;;;;28.45;27.10;;;34.30;59.00;;;;;;5031159;28;20187;-74
2022/10/17 12:55:17;;;;;;;27.08;25.48;;;34.00;58.70;;;;;;5032425;28;20182;-74
2022/10/17 12:58:01;;;;;;;7.28;4.63;;;33.90;59.60;;;;;;5032120;28;20804;-74